Time;durP1;ratioP1;P1;durP2;ratioP2;P2;SDS_P1;SDS_P2;PMS_P1;PMS_P2;Temp;Humidity;BMP_temperature;BMP_pressure;BME280_temperature;BME280_humidity;BME280_pressure;Samples;Min_cycle;Max_cycle;Signal;HPM_P1;HPM_P2
2022/11/29 00:00:38;;;;;;;65.35;12.73;;;7.90;99.90;;;;;;4230575;28;20125;-85
2022/11/29 00:02:39;;;;;;;55.67;13.32;;;8.00;99.90;;;;;;4229286;28;20079;-84
2022/11/29 00:04:41;;;;;;;57.03;12.07;;;7.90;99.90;;;;;;4232585;28;20056;-85
2022/11/29 00:06:42;;;;;;;70.20;13.18;;;7.30;99.90;;;;;;4251410;27;20046;-85
2022/11/29 00:08:44;;;;;;;62.97;13.35;;;7.90;99.90;;;;;;4232530;28;20051;-84
2022/11/29 00:10:45;;;;;;;69.05;13.05;;;7.90;99.90;;;;;;4249872;27;20535;-84
2022/11/29 00:12:47;;;;;;;62.00;13.52;;;7.90;99.90;;;;;;4250374;27;20043;-84
2022/11/29 00:14:48;;;;;;;70.05;14.13;;;7.90;99.90;;;;;;4250492;27;20039;-85
2022/11/29 00:16:51;;;;;;;57.30;12.40;;;7.90;99.90;;;;;;4250535;27;20130;-85
2022/11/29 00:18:51;;;;;;;53.97;11.45;;;7.90;99.90;;;;;;4250431;27;20047;-84
2022/11/29 00:20:52;;;;;;;51.97;11.73;;;7.90;99.90;;;;;;4249914;27;20555;-84
2022/11/29 00:22:54;;;;;;;60.67;13.02;;;7.90;99.90;;;;;;4232244;28;20071;-84
2022/11/29 00:24:54;;;;;;;57.50;12.70;;;7.20;99.90;;;;;;4250339;27;20054;-84
2022/11/29 00:26:55;;;;;;;45.85;10.98;;;7.80;99.90;;;;;;4250472;27;20514;-84
2022/11/29 00:28:57;;;;;;;39.78;12.02;;;7.80;99.90;;;;;;4250606;27;20039;-84
2022/11/29 00:30:59;;;;;;;54.83;13.18;;;7.90;99.90;;;;;;4249719;27;20479;-85
2022/11/29 00:33:01;;;;;;;46.65;11.60;;;7.90;99.90;;;;;;4250533;27;20035;-85
2022/11/29 00:35:03;;;;;;;44.58;11.15;;;7.80;99.90;;;;;;4214983;28;20167;-84
2022/11/29 00:37:04;;;;;;;48.72;11.75;;;7.80;99.90;;;;;;4249988;27;20047;-84
2022/11/29 00:39:05;;;;;;;45.25;10.70;;;7.80;99.90;;;;;;4250550;27;20585;-84
2022/11/29 00:41:06;;;;;;;45.08;10.05;;;7.80;99.90;;;;;;4250131;27;20544;-84
2022/11/29 00:43:07;;;;;;;54.75;10.30;;;7.80;99.90;;;;;;4250114;27;20035;-85
2022/11/29 00:45:08;;;;;;;39.67;10.07;;;7.80;99.90;;;;;;4249910;27;20122;-85
2022/11/29 00:47:09;;;;;;;37.75;10.73;;;7.80;99.90;;;;;;4250180;27;20495;-85
2022/11/29 00:49:10;;;;;;;49.42;10.68;;;7.80;99.90;;;;;;4250096;27;20039;-84
2022/11/29 00:51:10;;;;;;;39.45;9.73;;;7.80;99.90;;;;;;4231289;28;20097;-83
2022/11/29 00:53:11;;;;;;;43.83;9.70;;;7.80;99.90;;;;;;4249536;27;20093;-84
2022/11/29 00:55:12;;;;;;;52.70;10.52;;;7.70;99.90;;;;;;4250142;27;20051;-84
2022/11/29 00:57:13;;;;;;;43.75;9.63;;;7.70;99.90;;;;;;4250008;27;20406;-85
2022/11/29 00:59:14;;;;;;;43.05;9.38;;;7.70;99.90;;;;;;4249836;27;20439;-84
2022/11/29 01:01:15;;;;;;;47.10;9.88;;;7.70;99.90;;;;;;4214378;28;20105;-85
2022/11/29 01:03:16;;;;;;;41.13;9.45;;;7.70;99.90;;;;;;4215119;28;20060;-85
2022/11/29 01:05:17;;;;;;;41.00;9.80;;;7.70;99.90;;;;;;4249775;27;20548;-85
2022/11/29 01:07:18;;;;;;;41.55;9.60;;;7.60;99.90;;;;;;4231340;28;20052;-86
2022/11/29 01:09:19;;;;;;;33.75;8.65;;;7.60;99.90;;;;;;4231753;28;20563;-86
2022/11/29 01:11:24;;;;;;;29.25;9.57;;;7.60;99.90;;;;;;4232019;28;20044;-86
2022/11/29 01:13:25;;;;;;;36.92;8.57;;;7.60;99.90;;;;;;4232136;28;20475;-85
2022/11/29 01:15:27;;;;;;;31.88;8.63;;;6.80;99.90;;;;;;4231728;28;20048;-85
2022/11/29 01:17:28;;;;;;;49.95;8.88;;;7.50;99.90;;;;;;4231571;28;20055;-85
2022/11/29 01:19:29;;;;;;;52.00;8.75;;;7.60;99.90;;;;;;4249947;27;20045;-85
2022/11/29 01:21:31;;;;;;;49.03;10.18;;;7.60;99.90;;;;;;4249718;27;20031;-85
2022/11/29 01:23:35;;;;;;;42.50;9.23;;;7.50;99.90;;;;;;4230925;28;20060;-85
2022/11/29 01:25:36;;;;;;;45.67;8.77;;;7.50;99.90;;;;;;4249404;27;20047;-85
2022/11/29 01:27:36;;;;;;;32.92;8.55;;;7.50;99.90;;;;;;4249173;27;20036;-85
2022/11/29 01:29:38;;;;;;;42.17;8.88;;;7.50;99.90;;;;;;4248778;27;20136;-86
2022/11/29 01:31:39;;;;;;;37.25;8.57;;;7.50;99.90;;;;;;4231355;28;20572;-86
2022/11/29 01:33:41;;;;;;;39.22;8.05;;;7.80;99.90;;;;;;4231650;28;20094;-86
2022/11/29 01:35:52;;;;;;;47.47;9.38;;;7.50;99.90;;;;;;4231515;28;20047;-86
2022/11/29 01:37:52;;;;;;;43.65;7.75;;;7.50;99.90;;;;;;4214579;28;20428;-86
2022/11/29 01:39:54;;;;;;;42.65;8.10;;;7.50;99.90;;;;;;4231012;28;20054;-86
2022/11/29 01:41:56;;;;;;;33.10;8.10;;;7.50;99.90;;;;;;4249080;27;20047;-85
2022/11/29 01:44:04;;;;;;;48.20;8.88;;;7.50;99.90;;;;;;4248601;27;20039;-85
2022/11/29 01:46:05;;;;;;;42.67;10.05;;;7.50;99.90;;;;;;4230797;28;20043;-85
2022/11/29 01:48:07;;;;;;;45.20;8.75;;;7.50;99.90;;;;;;4230888;28;20457;-86
2022/11/29 01:50:08;;;;;;;49.85;8.65;;;7.50;99.90;;;;;;4248095;27;20110;-85
2022/11/29 01:52:31;;;;;;;35.33;8.93;;;7.50;99.90;;;;;;4247395;27;20036;-86
2022/11/29 01:54:37;;;;;;;34.72;9.00;;;7.00;99.90;;;;;;4247376;27;20035;-85
2022/11/29 01:56:42;;;;;;;34.15;8.77;;;7.50;99.90;;;;;;4247379;27;20078;-86
2022/11/29 01:58:44;;;;;;;36.25;9.60;;;6.50;99.90;;;;;;4247919;27;20259;-86
2022/11/29 02:00:46;;;;;;;37.50;7.95;;;7.50;99.90;;;;;;4212613;28;20055;-86
2022/11/29 02:02:54;;;;;;;32.58;8.35;;;7.50;99.90;;;;;;4247871;27;20500;-85
2022/11/29 02:04:58;;;;;;;38.65;8.63;;;7.50;99.90;;;;;;4248874;27;20047;-86
2022/11/29 02:06:59;;;;;;;35.28;9.43;;;7.40;99.90;;;;;;4250223;27;20465;-86
2022/11/29 02:09:01;;;;;;;32.28;9.18;;;7.50;99.90;;;;;;4248298;27;20541;-86
2022/11/29 02:11:01;;;;;;;31.63;8.52;;;7.50;99.90;;;;;;4248634;27;20047;-85
2022/11/29 02:13:14;;;;;;;32.97;8.52;;;7.50;99.90;;;;;;4248967;27;20384;-85
2022/11/29 02:15:37;;;;;;;33.28;9.55;;;7.50;99.90;;;;;;4248754;27;20086;-85
2022/11/29 02:17:53;;;;;;;38.10;10.60;;;7.50;99.90;;;;;;4249122;27;20047;-86
2022/11/29 02:20:05;;;;;;;30.92;9.80;;;7.50;99.90;;;;;;4249288;27;20071;-85
2022/11/29 02:22:30;;;;;;;27.33;7.93;;;7.50;99.90;;;;;;4248896;27;20489;-85
2022/11/29 02:24:32;;;;;;;27.75;8.38;;;7.50;99.90;;;;;;4248366;27;20043;-85
2022/11/29 02:26:47;;;;;;;30.35;8.75;;;7.50;99.90;;;;;;4248601;27;20045;-85
2022/11/29 02:29:30;;;;;;;29.73;8.63;;;7.50;99.90;;;;;;4249063;27;20054;-85
2022/11/29 02:31:51;;;;;;;26.80;7.72;;;7.50;99.90;;;;;;4249137;27;20074;-85
2022/11/29 02:34:28;;;;;;;33.10;9.00;;;7.50;99.90;;;;;;4248810;27;20050;-87
2022/11/29 02:37:09;;;;;;;36.38;8.93;;;7.50;99.90;;;;;;4248224;27;20422;-86
2022/11/29 02:39:28;;;;;;;32.80;8.98;;;7.50;99.90;;;;;;4248740;27;20047;-86
2022/11/29 02:41:58;;;;;;;29.98;8.55;;;7.40;99.90;;;;;;4248365;27;20187;-85
2022/11/29 02:44:23;;;;;;;33.25;8.93;;;7.40;99.90;;;;;;4208269;28;20056;-85
2022/11/29 02:46:48;;;;;;;27.20;8.95;;;7.40;99.90;;;;;;4247817;27;20039;-86
2022/11/29 02:48:49;;;;;;;34.80;8.63;;;7.40;99.90;;;;;;4248618;27;20043;-85
2022/11/29 02:51:03;;;;;;;34.42;8.85;;;7.40;99.90;;;;;;4248185;27;20414;-86
2022/11/29 02:53:23;;;;;;;31.80;9.43;;;7.40;99.90;;;;;;4248539;27;20544;-86
2022/11/29 02:55:36;;;;;;;30.60;9.02;;;7.40;99.90;;;;;;4248751;27;20436;-86
2022/11/29 02:58:01;;;;;;;30.83;9.20;;;7.40;99.90;;;;;;4248727;27;20376;-86
2022/11/29 03:00:12;;;;;;;29.58;9.35;;;7.40;99.90;;;;;;4248009;27;20040;-86
2022/11/29 03:02:30;;;;;;;26.48;8.48;;;7.40;99.90;;;;;;4248688;27;20569;-86
2022/11/29 03:04:39;;;;;;;29.92;8.20;;;7.40;99.90;;;;;;4248604;27;20491;-86
2022/11/29 03:06:57;;;;;;;29.95;8.73;;;7.40;99.90;;;;;;4248564;27;20043;-86
2022/11/29 03:09:19;;;;;;;34.55;10.15;;;7.40;99.90;;;;;;4249290;27;20045;-86
2022/11/29 03:11:31;;;;;;;30.70;8.80;;;7.40;99.90;;;;;;4235197;27;20054;-86
2022/11/29 03:13:40;;;;;;;34.28;10.02;;;7.40;99.90;;;;;;4251933;28;20065;-86
2022/11/29 03:16:27;;;;;;;22.55;8.40;;;7.40;99.90;;;;;;4241505;28;20048;-83
2022/11/29 03:18:38;;;;;;;28.60;8.73;;;7.40;99.90;;;;;;4249501;28;20035;-85
2022/11/29 03:21:06;;;;;;;36.53;8.40;;;7.40;99.90;;;;;;4253325;28;20141;-85
2022/11/29 03:23:36;;;;;;;30.50;8.93;;;7.40;99.90;;;;;;4247330;28;20040;-86
2022/11/29 03:25:46;;;;;;;30.33;8.45;;;7.40;99.90;;;;;;4234764;28;20052;-86
2022/11/29 03:27:57;;;;;;;30.77;9.98;;;7.40;99.90;;;;;;4216617;28;20094;-84
2022/11/29 03:30:03;;;;;;;29.80;9.15;;;7.40;99.90;;;;;;4237377;28;20043;-84
2022/11/29 03:32:27;;;;;;;32.60;9.00;;;7.40;99.90;;;;;;4235585;28;20047;-83
2022/11/29 03:34:46;;;;;;;33.67;9.35;;;7.40;99.90;;;;;;4232783;28;20112;-84
2022/11/29 03:37:05;;;;;;;21.25;8.02;;;7.40;99.90;;;;;;4231217;28;20047;-84
2022/11/29 03:39:17;;;;;;;21.02;7.35;;;7.40;99.90;;;;;;4232790;28;20043;-85
2022/11/29 03:41:36;;;;;;;26.65;8.18;;;7.40;99.90;;;;;;4217265;28;20115;-86
2022/11/29 03:43:55;;;;;;;29.80;8.48;;;7.40;99.90;;;;;;4234204;28;20044;-84
2022/11/29 03:46:04;;;;;;;28.45;8.30;;;7.40;99.90;;;;;;4235074;27;20038;-84
2022/11/29 03:48:15;;;;;;;25.98;8.50;;;7.40;99.90;;;;;;4244728;27;20402;-85
2022/11/29 03:50:21;;;;;;;37.30;9.70;;;7.40;99.90;;;;;;4232738;28;20051;-85
2022/11/29 03:52:48;;;;;;;32.45;10.65;;;7.40;99.90;;;;;;4220727;28;20119;-85
2022/11/29 03:55:04;;;;;;;28.00;8.38;;;7.40;99.90;;;;;;4217034;28;20075;-84
2022/11/29 03:57:05;;;;;;;30.63;8.60;;;7.40;99.90;;;;;;4215771;28;20114;-86
2022/11/29 03:59:24;;;;;;;30.83;8.30;;;7.40;99.90;;;;;;4216944;28;20048;-85
2022/11/29 04:01:33;;;;;;;;;;;7.40;99.90;;;;;;4199469;28;20052;-85
2022/11/29 04:04:12;;;;;;;31.17;7.95;;;7.30;99.90;;;;;;4217078;28;20304;-85
2022/11/29 04:06:41;;;;;;;24.77;8.43;;;7.30;99.90;;;;;;4216557;28;20169;-84
2022/11/29 04:08:44;;;;;;;;;;;7.30;99.90;;;;;;4216119;28;20047;-85
2022/11/29 04:11:21;;;;;;;25.73;8.88;;;7.30;99.90;;;;;;4215601;28;20376;-84
2022/11/29 04:13:26;;;;;;;21.45;8.25;;;7.30;99.90;;;;;;4215122;28;20400;-85
2022/11/29 04:16:22;;;;;;;26.92;9.52;;;7.20;99.90;;;;;;4216764;28;20459;-84
2022/11/29 04:18:29;;;;;;;27.55;8.73;;;7.30;99.90;;;;;;4164217;28;20054;-85
2022/11/29 04:20:48;;;;;;;25.15;8.75;;;7.20;99.90;;;;;;4199190;28;20512;-85
2022/11/29 04:23:19;;;;;;;25.88;8.70;;;7.20;99.90;;;;;;4216275;28;20512;-84
2022/11/29 04:25:19;;;;;;;21.13;8.50;;;7.20;99.90;;;;;;4216659;28;20100;-84
2022/11/29 04:27:35;;;;;;;25.00;8.60;;;7.20;99.90;;;;;;4215237;28;20048;-84
2022/11/29 04:29:44;;;;;;;21.33;7.60;;;7.20;99.90;;;;;;4215438;28;20048;-84
2022/11/29 04:32:09;;;;;;;31.00;9.32;;;7.20;99.90;;;;;;4216352;28;20044;-85
2022/11/29 04:34:33;;;;;;;32.40;9.25;;;7.20;99.90;;;;;;4221974;28;20400;-85
2022/11/29 04:36:54;;;;;;;20.70;8.38;;;7.20;99.90;;;;;;4199699;28;20516;-85
2022/11/29 04:39:14;;;;;;;24.52;8.27;;;7.20;99.90;;;;;;4216973;28;20044;-85
2022/11/29 04:41:21;;;;;;;22.85;8.13;;;7.30;99.90;;;;;;4198089;28;20566;-85
2022/11/29 04:43:48;;;;;;;33.50;9.70;;;7.20;99.90;;;;;;4216153;28;20043;-84
2022/11/29 04:46:07;;;;;;;24.63;7.95;;;7.20;99.90;;;;;;4192125;28;20048;-85
2022/11/29 04:48:44;;;;;;;27.95;8.38;;;7.20;99.90;;;;;;4215132;28;20489;-85
2022/11/29 04:51:17;;;;;;;22.05;8.20;;;7.20;99.90;;;;;;4214673;28;20060;-85
2022/11/29 04:53:38;;;;;;;25.38;7.47;;;7.20;99.90;;;;;;4215647;28;20048;-85
2022/11/29 04:56:12;;;;;;;29.05;9.00;;;7.20;99.90;;;;;;4198464;28;20044;-85
2022/11/29 04:58:21;;;;;;;30.77;7.25;;;7.20;99.90;;;;;;4215250;28;20389;-85
2022/11/29 05:00:24;;;;;;;27.55;9.38;;;7.20;99.90;;;;;;4215299;28;20052;-85
2022/11/29 05:02:53;;;;;;;31.92;9.60;;;7.20;99.90;;;;;;4216013;28;20043;-85
2022/11/29 05:05:15;;;;;;;29.77;8.52;;;7.20;99.90;;;;;;4209270;28;20373;-86
2022/11/29 05:07:45;;;;;;;30.42;9.25;;;7.20;99.90;;;;;;4214148;28;20094;-85
2022/11/29 05:10:00;;;;;;;30.05;8.82;;;7.20;99.90;;;;;;4216099;28;20055;-85
2022/11/29 05:12:27;;;;;;;24.65;8.00;;;7.20;99.90;;;;;;4214714;28;20043;-86
2022/11/29 05:14:49;;;;;;;24.58;8.40;;;7.20;99.90;;;;;;4215895;28;20055;-85
2022/11/29 05:17:32;;;;;;;22.85;8.52;;;7.10;99.90;;;;;;4215843;28;20435;-85
2022/11/29 05:20:00;;;;;;;24.75;8.02;;;7.20;99.90;;;;;;4214039;28;20054;-85
2022/11/29 05:22:10;;;;;;;31.38;9.60;;;7.20;99.90;;;;;;4215705;28;20040;-85
2022/11/29 05:24:20;;;;;;;28.38;9.93;;;7.20;99.90;;;;;;4215956;28;20062;-84
2022/11/29 05:26:39;;;;;;;25.80;9.18;;;7.20;99.90;;;;;;4214513;28;20157;-84
2022/11/29 05:28:54;;;;;;;37.50;11.20;;;7.10;99.90;;;;;;4215285;28;20118;-85
2022/11/29 05:31:18;;;;;;;34.95;9.20;;;7.10;99.90;;;;;;4214539;28;20056;-84
2022/11/29 05:33:55;;;;;;;23.02;10.15;;;7.20;99.90;;;;;;4215685;28;20432;-85
2022/11/29 05:36:05;;;;;;;28.42;9.63;;;7.10;99.90;;;;;;4215997;28;20488;-85
2022/11/29 05:38:12;;;;;;;24.05;9.80;;;7.10;99.90;;;;;;4215274;28;20097;-85
2022/11/29 05:40:24;;;;;;;33.30;9.63;;;7.10;99.90;;;;;;4214276;28;20044;-86
2022/11/29 05:43:08;;;;;;;23.98;8.80;;;7.10;99.90;;;;;;4215441;28;20044;-85
2022/11/29 05:45:31;;;;;;;22.95;8.82;;;7.10;99.90;;;;;;4185983;28;20056;-85
2022/11/29 05:47:50;;;;;;;27.33;8.68;;;7.10;99.90;;;;;;4215545;28;20043;-86
2022/11/29 05:50:18;;;;;;;33.05;9.80;;;7.10;99.90;;;;;;4213458;28;20053;-85
2022/11/29 05:52:40;;;;;;;25.37;9.37;;;7.10;99.90;;;;;;4215333;28;20048;-85
2022/11/29 05:54:55;;;;;;;29.80;9.02;;;7.10;99.90;;;;;;4215262;28;20079;-86
2022/11/29 05:57:32;;;;;;;19.52;8.32;;;7.00;99.90;;;;;;4215451;28;20048;-86
2022/11/29 05:59:36;;;;;;;29.73;9.75;;;7.00;99.90;;;;;;4217094;28;20086;-85
2022/11/29 06:01:53;;;;;;;29.08;9.45;;;7.00;99.90;;;;;;4214392;28;20097;-85
2022/11/29 06:04:12;;;;;;;25.35;9.55;;;7.00;99.90;;;;;;4215366;28;20044;-86
2022/11/29 06:06:19;;;;;;;21.35;8.30;;;7.00;99.90;;;;;;4213815;28;20062;-86
2022/11/29 06:08:43;;;;;;;24.67;9.02;;;7.00;99.90;;;;;;4214956;28;20488;-85
2022/11/29 06:11:11;;;;;;;26.67;7.95;;;7.00;99.90;;;;;;4213588;28;20542;-85
2022/11/29 06:13:31;;;;;;;24.33;8.90;;;7.00;99.90;;;;;;4213406;28;20127;-86
2022/11/29 06:16:06;;;;;;;27.00;8.50;;;7.00;99.90;;;;;;4215153;28;20055;-86
2022/11/29 06:18:26;;;;;;;27.17;8.27;;;7.00;99.90;;;;;;4216741;28;20048;-86
2022/11/29 06:20:41;;;;;;;26.33;8.63;;;7.00;99.90;;;;;;4216192;28;20142;-85
2022/11/29 06:22:50;;;;;;;28.85;9.27;;;6.90;99.90;;;;;;4216382;28;20043;-86
2022/11/29 06:25:21;;;;;;;24.27;8.13;;;6.90;99.90;;;;;;4214936;28;20082;-85
2022/11/29 06:27:35;;;;;;;23.30;7.78;;;6.90;99.90;;;;;;4214218;28;20090;-85
2022/11/29 06:30:03;;;;;;;25.65;8.68;;;6.90;99.90;;;;;;4214719;28;20048;-85
2022/11/29 06:32:30;;;;;;;27.25;9.15;;;6.90;99.90;;;;;;4210427;28;20055;-85
2022/11/29 06:34:58;;;;;;;26.23;8.30;;;6.80;99.90;;;;;;4216540;28;20070;-85
2022/11/29 06:37:20;;;;;;;22.70;7.55;;;6.90;99.90;;;;;;4213585;28;20112;-85
2022/11/29 06:39:21;;;;;;;18.35;7.32;;;6.90;99.90;;;;;;4214228;28;20052;-85
2022/11/29 06:41:23;;;;;;;17.63;7.30;;;6.80;99.90;;;;;;4214942;28;20044;-84
2022/11/29 06:43:24;;;;;;;25.35;7.88;;;6.80;99.90;;;;;;4213329;28;20123;-85
2022/11/29 06:45:25;;;;;;;25.48;8.00;;;6.80;99.90;;;;;;4213498;28;20044;-85
2022/11/29 06:47:37;;;;;;;23.33;7.40;;;6.80;99.90;;;;;;4214321;28;20086;-85
2022/11/29 06:49:48;;;;;;;20.35;6.90;;;6.80;99.90;;;;;;4214570;28;20551;-85
2022/11/29 06:52:01;;;;;;;19.67;6.75;;;6.90;99.90;;;;;;4231339;28;20126;-85
2022/11/29 06:54:27;;;;;;;21.30;6.93;;;6.90;99.90;;;;;;4213005;28;20109;-85
2022/11/29 06:56:40;;;;;;;20.25;6.35;;;6.90;99.90;;;;;;4231104;28;20458;-85
2022/11/29 06:58:48;;;;;;;20.98;6.07;;;7.00;99.90;;;;;;4230844;28;20588;-85
2022/11/29 07:00:57;;;;;;;23.80;6.83;;;7.00;99.90;;;;;;4213112;28;20097;-86
2022/11/29 07:03:16;;;;;;;;;;;7.00;99.90;;;;;;4213628;28;20135;-85
2022/11/29 07:05:28;;;;;;;15.73;5.95;;;7.10;99.90;;;;;;4231261;28;20330;-85
2022/11/29 07:07:29;;;;;;;16.75;5.22;;;7.10;99.90;;;;;;4212685;28;20070;-85
2022/11/29 07:09:33;;;;;;;21.85;6.40;;;7.10;99.90;;;;;;4213450;28;20040;-85
2022/11/29 07:11:34;;;;;;;24.92;6.72;;;7.10;99.90;;;;;;4212863;28;20056;-85
2022/11/29 07:13:36;;;;;;;14.80;5.90;;;7.20;99.90;;;;;;4212764;28;20052;-85
2022/11/29 07:15:42;;;;;;;17.13;4.45;;;7.20;99.90;;;;;;4196056;28;20113;-85
2022/11/29 07:18:11;;;;;;;13.93;5.00;;;7.20;99.90;;;;;;4195736;28;20425;-87
2022/11/29 07:20:25;;;;;;;17.10;4.95;;;7.20;99.90;;;;;;4212875;28;20095;-85
2022/11/29 07:22:36;;;;;;;27.52;6.78;;;7.20;99.90;;;;;;4212786;28;20047;-85
2022/11/29 07:25:11;;;;;;;17.70;5.45;;;7.20;99.90;;;;;;4212779;28;20435;-85
2022/11/29 07:27:32;;;;;;;18.48;5.38;;;7.20;99.90;;;;;;4212586;28;20084;-85
2022/11/29 07:29:44;;;;;;;15.98;5.05;;;7.20;99.90;;;;;;4212952;28;20116;-85
2022/11/29 07:32:09;;;;;;;19.58;5.47;;;7.20;99.90;;;;;;4212551;28;20052;-85
2022/11/29 07:34:32;;;;;;;17.05;4.68;;;7.20;99.90;;;;;;4230776;28;20071;-86
2022/11/29 07:36:43;;;;;;;19.13;5.18;;;7.30;99.90;;;;;;4213167;28;20052;-86
2022/11/29 07:38:43;;;;;;;16.25;5.45;;;7.30;99.90;;;;;;4212134;28;20044;-86
2022/11/29 07:40:50;;;;;;;15.25;5.20;;;7.30;99.90;;;;;;4196601;28;20140;-85
2022/11/29 07:43:07;;;;;;;18.83;5.25;;;7.30;99.90;;;;;;4213151;28;20047;-86
2022/11/29 07:45:27;;;;;;;17.05;5.55;;;7.30;99.90;;;;;;4215813;28;20099;-86
2022/11/29 07:47:28;;;;;;;12.65;5.00;;;7.30;99.90;;;;;;4240896;28;20039;-84
2022/11/29 07:49:29;;;;;;;14.95;5.95;;;7.30;99.90;;;;;;4242121;28;20457;-84
2022/11/29 07:51:30;;;;;;;21.17;6.47;;;7.30;99.90;;;;;;4224115;28;20044;-84
2022/11/29 07:53:32;;;;;;;17.40;6.65;;;7.70;99.90;;;;;;4205858;28;20044;-84
2022/11/29 07:55:34;;;;;;;20.42;6.93;;;7.30;99.90;;;;;;4234339;28;20075;-85
2022/11/29 07:57:35;;;;;;;17.88;6.18;;;7.30;99.90;;;;;;4214081;28;20585;-86
2022/11/29 07:59:36;;;;;;;13.07;5.20;;;7.30;99.90;;;;;;4213550;28;20040;-86
2022/11/29 08:01:38;;;;;;;20.40;6.18;;;7.30;99.90;;;;;;4212649;28;20122;-86
2022/11/29 08:03:40;;;;;;;18.58;6.30;;;7.30;99.90;;;;;;4230948;28;20487;-86
2022/11/29 08:05:45;;;;;;;17.35;6.63;;;7.30;99.90;;;;;;4230944;28;20136;-85
2022/11/29 08:07:46;;;;;;;21.35;6.15;;;7.30;99.90;;;;;;4212581;28;20062;-86
2022/11/29 08:09:47;;;;;;;18.35;6.72;;;7.30;99.90;;;;;;4212810;28;20389;-85
2022/11/29 08:11:48;;;;;;;18.20;6.07;;;7.30;99.90;;;;;;4230005;28;20057;-86
2022/11/29 08:13:49;;;;;;;18.33;6.88;;;7.30;99.90;;;;;;4230963;28;20551;-86
2022/11/29 08:15:50;;;;;;;17.42;5.85;;;7.70;99.90;;;;;;4196318;28;20048;-87
2022/11/29 08:17:52;;;;;;;20.58;6.20;;;7.30;99.90;;;;;;4212641;28;20044;-89
2022/11/29 08:19:52;;;;;;;18.25;6.35;;;7.40;99.90;;;;;;4230860;28;20039;-88
2022/11/29 08:21:54;;;;;;;22.95;6.63;;;7.30;99.90;;;;;;4212798;28;20128;-88
2022/11/29 08:23:55;;;;;;;18.08;5.70;;;7.30;99.90;;;;;;4231894;28;20381;-88
2022/11/29 08:26:00;;;;;;;14.23;5.40;;;7.40;99.90;;;;;;4216796;28;20051;-86
2022/11/29 08:28:06;;;;;;;16.23;7.30;;;7.40;99.90;;;;;;4225514;28;20199;-86
2022/11/29 08:30:07;;;;;;;22.63;6.82;;;7.40;99.90;;;;;;4247973;27;20086;-87
2022/11/29 08:32:08;;;;;;;17.63;6.50;;;7.40;99.90;;;;;;4234826;28;20085;-86
2022/11/29 08:34:10;;;;;;;16.90;5.90;;;7.40;99.90;;;;;;4250891;27;20066;-86
2022/11/29 08:36:17;;;;;;;20.77;6.50;;;7.40;99.90;;;;;;4235467;28;20047;-86
2022/11/29 08:38:18;;;;;;;14.10;5.35;;;7.40;99.90;;;;;;4253584;27;20039;-86
2022/11/29 08:40:20;;;;;;;13.85;6.20;;;7.40;99.90;;;;;;4234548;28;20056;-86
2022/11/29 08:42:21;;;;;;;17.40;5.95;;;7.40;99.90;;;;;;4236617;28;20514;-87
2022/11/29 08:44:22;;;;;;;22.95;5.60;;;7.50;99.90;;;;;;4253039;27;20437;-86
2022/11/29 08:47:34;;;;;;;13.45;6.07;;;7.50;99.90;;;;;;4253777;27;20043;-87
2022/11/29 08:48:44;;;;;;;14.88;5.15;;;7.40;99.90;;;;;;4258396;27;20130;-86
2022/11/29 08:50:47;;;;;;;21.90;4.95;;;7.50;99.90;;;;;;4241994;28;20066;-86
2022/11/29 08:55:11;;;;;;;18.65;5.38;;;7.50;99.90;;;;;;4251706;27;20531;-87
2022/11/29 08:57:12;;;;;;;14.05;4.93;;;7.50;99.90;;;;;;4251984;27;20038;-87
2022/11/29 08:59:14;;;;;;;17.10;6.10;;;7.50;99.90;;;;;;4252477;27;20425;-86
2022/11/29 09:01:18;;;;;;;20.30;5.30;;;7.50;99.90;;;;;;4217431;28;20051;-87
2022/11/29 09:05:39;;;;;;;17.10;4.75;;;7.50;99.90;;;;;;4234431;28;20055;-87
2022/11/29 09:07:41;;;;;;;17.42;5.65;;;7.50;99.90;;;;;;4234504;28;20109;-86
2022/11/29 09:09:43;;;;;;;17.13;4.85;;;7.50;99.90;;;;;;4253090;27;20039;-87
2022/11/29 09:11:44;;;;;;;23.90;5.60;;;7.60;99.90;;;;;;4234273;28;20507;-87
2022/11/29 09:13:48;;;;;;;13.75;5.35;;;7.60;99.90;;;;;;4251715;27;20043;-87
2022/11/29 09:15:48;;;;;;;16.23;5.25;;;7.60;99.90;;;;;;4232702;28;20806;-86
2022/11/29 09:17:50;;;;;;;12.07;4.68;;;7.60;99.90;;;;;;4248133;27;20055;-85
2022/11/29 09:19:51;;;;;;;15.52;5.47;;;7.70;99.90;;;;;;4214259;28;20056;-85
2022/11/29 09:21:53;;;;;;;15.23;6.10;;;7.70;99.90;;;;;;4249341;27;20074;-86
2022/11/29 09:23:57;;;;;;;15.18;5.22;;;7.70;99.90;;;;;;4214501;28;20048;-85
2022/11/29 09:25:59;;;;;;;18.80;4.97;;;7.70;99.90;;;;;;4249145;27;20039;-86
2022/11/29 09:28:01;;;;;;;19.77;4.85;;;7.70;99.90;;;;;;4249533;27;20043;-86
2022/11/29 09:30:03;;;;;;;14.95;4.75;;;7.60;99.90;;;;;;4248951;27;20384;-85
2022/11/29 09:32:04;;;;;;;20.13;5.60;;;7.70;99.90;;;;;;4213734;28;20424;-85
2022/11/29 09:34:05;;;;;;;13.68;5.07;;;7.70;99.90;;;;;;4230902;28;20052;-85
2022/11/29 09:36:07;;;;;;;17.63;5.20;;;7.80;99.90;;;;;;4249053;27;20046;-85
2022/11/29 09:38:12;;;;;;;13.18;4.82;;;7.80;99.90;;;;;;4230851;28;20613;-85
2022/11/29 09:40:22;;;;;;;15.32;5.30;;;7.80;99.90;;;;;;4230881;28;20047;-86
2022/11/29 09:42:26;;;;;;;11.93;4.40;;;7.90;99.90;;;;;;4230859;28;20099;-86
2022/11/29 09:44:50;;;;;;;17.83;5.40;;;7.90;99.90;;;;;;4232249;28;20052;-87
2022/11/29 09:46:57;;;;;;;16.25;5.28;;;7.90;99.90;;;;;;4249236;27;20551;-88
2022/11/29 09:49:16;;;;;;;19.02;6.25;;;8.00;99.90;;;;;;4225261;28;20278;-86
2022/11/29 09:51:49;;;;;;;17.10;5.43;;;8.00;99.90;;;;;;4240819;27;20059;-85
2022/11/29 09:54:13;;;;;;;13.95;5.22;;;8.00;99.90;;;;;;4184774;28;20066;-86
2022/11/29 09:56:35;;;;;;;10.68;5.10;;;8.10;99.90;;;;;;4231954;28;20085;-85
2022/11/29 09:58:56;;;;;;;18.77;5.55;;;8.10;99.90;;;;;;4249052;27;20043;-86
2022/11/29 10:01:01;;;;;;;18.92;5.05;;;8.20;99.90;;;;;;4250002;27;20145;-85
2022/11/29 10:03:31;;;;;;;17.20;5.25;;;8.20;99.90;;;;;;4249236;27;20452;-85
2022/11/29 10:05:43;;;;;;;20.30;5.82;;;8.30;99.90;;;;;;4250639;27;20051;-85
2022/11/29 10:08:07;;;;;;;16.33;5.25;;;8.30;99.90;;;;;;4250041;27;20043;-84
2022/11/29 10:10:12;;;;;;;20.40;5.28;;;8.40;99.90;;;;;;4250448;27;20661;-85
2022/11/29 10:12:34;;;;;;;15.82;4.88;;;8.40;99.90;;;;;;4249038;27;20082;-86
2022/11/29 10:14:46;;;;;;;14.82;4.50;;;8.50;99.90;;;;;;4248747;27;20049;-85
2022/11/29 10:16:59;;;;;;;13.02;5.20;;;8.50;99.90;;;;;;4248891;27;20074;-85
2022/11/29 10:19:14;;;;;;;19.10;5.15;;;8.60;99.90;;;;;;4248348;27;20068;-86
2022/11/29 10:21:21;;;;;;;19.02;5.00;;;8.60;99.90;;;;;;4247980;27;20456;-86
2022/11/29 10:23:39;;;;;;;14.70;4.88;;;8.60;99.90;;;;;;4250094;27;20046;-86
2022/11/29 10:25:47;;;;;;;11.88;4.75;;;8.70;99.90;;;;;;4248546;27;20051;-86
2022/11/29 10:27:48;;;;;;;13.25;4.53;;;8.70;99.90;;;;;;4229837;28;20415;-86
2022/11/29 10:29:50;;;;;;;21.77;5.45;;;8.70;99.90;;;;;;4247994;27;20153;-86
2022/11/29 10:31:55;;;;;;;14.70;5.07;;;8.80;99.90;;;;;;4229497;28;20044;-86
2022/11/29 10:34:00;;;;;;;19.83;4.65;;;8.90;99.90;;;;;;4229571;28;20380;-86
2022/11/29 10:36:08;;;;;;;14.75;5.47;;;8.90;99.90;;;;;;4229678;28;20548;-86
2022/11/29 10:38:12;;;;;;;16.77;7.05;;;8.90;99.90;;;;;;4248140;27;20058;-86
2022/11/29 10:40:20;;;;;;;15.63;6.20;;;8.90;99.90;;;;;;4248250;27;20491;-86
2022/11/29 10:44:43;;;;;;;16.75;6.43;;;9.00;99.90;;;;;;4248174;27;20055;-86
2022/11/29 10:46:43;;;;;;;17.08;6.60;;;9.00;99.90;;;;;;4247248;27;20062;-86
2022/11/29 10:48:45;;;;;;;17.52;6.93;;;9.00;99.90;;;;;;4247999;27;20051;-86
2022/11/29 10:50:48;;;;;;;19.77;7.38;;;9.00;99.90;;;;;;4229482;28;20051;-86
2022/11/29 10:52:49;;;;;;;18.40;7.57;;;9.10;99.90;;;;;;4247880;27;20428;-86
2022/11/29 10:54:55;;;;;;;16.38;6.93;;;9.00;99.90;;;;;;4229882;28;20055;-86
2022/11/29 10:56:59;;;;;;;14.40;6.50;;;9.10;99.90;;;;;;4248248;27;20480;-86
2022/11/29 10:59:04;;;;;;;19.80;8.23;;;9.10;99.90;;;;;;4247585;27;20058;-86
2022/11/29 11:01:06;;;;;;;21.15;7.53;;;9.10;99.90;;;;;;4248028;27;20050;-86
2022/11/29 11:03:48;;;;;;;18.58;7.28;;;9.20;99.90;;;;;;4247965;27;20039;-86
2022/11/29 11:06:14;;;;;;;13.75;6.20;;;9.20;99.90;;;;;;4243025;27;20096;-86
2022/11/29 11:08:17;;;;;;;12.82;5.97;;;9.30;99.90;;;;;;4247924;27;20047;-86
2022/11/29 11:10:26;;;;;;;16.50;6.88;;;9.30;99.90;;;;;;4229364;28;20047;-86
2022/11/29 11:12:30;;;;;;;19.80;7.75;;;9.30;99.90;;;;;;4247510;27;20390;-86
2022/11/29 11:14:37;;;;;;;13.70;7.05;;;9.20;99.90;;;;;;4229332;28;20052;-86
2022/11/29 11:16:38;;;;;;;15.25;6.70;;;9.30;99.90;;;;;;4247770;28;20039;-86
2022/11/29 11:18:38;;;;;;;14.82;6.10;;;9.30;99.90;;;;;;4247845;28;20085;-86
2022/11/29 11:20:41;;;;;;;14.82;7.13;;;9.00;99.90;;;;;;4229067;28;20035;-86
2022/11/29 11:22:43;;;;;;;14.25;6.68;;;9.40;99.90;;;;;;4229495;28;20113;-86
2022/11/29 11:24:43;;;;;;;15.68;6.93;;;9.40;99.90;;;;;;4247604;28;20047;-86
2022/11/29 11:26:45;;;;;;;17.17;7.18;;;9.40;99.90;;;;;;4229788;28;20423;-86